Raleigh County Memorial (BKW)

 

Airport Diagram
No Airport Diagram Available
Current Weather/Forecast (IFR Conditions)
METAR KBKW 211351Z AUTO 24006KT 3SM -SN BR BKN008 BKN019 OVC042 M01/M01 A2987 RMK AO2 SLP145 P0001 T10061011 TSNO
TAF KBKW 211324Z 2113/2212 24008KT 2SM -SN BR SCT005 OVC012 FM211400 26009G15KT 5SM BR FEW006 BKN015 OVC025 FM211500 26012G20KT P6SM BKN018 OVC025 FM211800 28013G21KT P6SM OVC020 FM212300 28007KT P6SM BKN250

Airport Information

All Charts
General
Chart Name View
TAKEOFF MINIMUMS
ALTERNATE MINIMUMS
TAKEOFF MINIMUMS
ALTERNATE MINIMUMS

Approaches
Chart Name Download
ILS OR LOC RWY 19
RNAV (GPS) RWY 01
RNAV (GPS) RWY 10
RNAV (GPS) RWY 19
RNAV (GPS) RWY 28
VOR RWY 10
ILS OR LOC RWY 19
RNAV (GPS) RWY 01
RNAV (GPS) RWY 10
RNAV (GPS) RWY 19
RNAV (GPS) RWY 28
VOR RWY 10


Airport Statistics
Departures Arrivals Local
All Collected Stats since June 2016: 47 42 1
2021 Stats: 0 0 0
January Stats: 0 0 0

Inbound Traffic (Arrivals) - 0

No inbound traffic.


Outbound Traffic (Departures) - 0

No outbound traffic.


Local Traffic (Pattern) - 0

No local traffic.